Weather at Aalborg Airport

Public forecast

Using degrees Celsius for public forecast. Weather courtesy of forecast.io.

Current aviation weather report (METAR) for Aalborg Airport

Retrieved 2020/10/27 02:20 UTC (0 seconds ago):

EKYT 270220Z AUTO 17012KT 9999 FEW055/// 08/06 Q0996

Aviation forecast (TAF) for Aalborg Airport

Retrieved 2020-10-27 03:31 UTC (0 seconds ago):

TAF EKYT 270220Z 2703/2803 17010KT 9999 BKN030 TEMPO 2703/2709 5000 SHRA BKN010 SCT020CB TEMPO 2709/2715 19015G25KT 6000 -SHRA BKN012 SCT020CB TEMPO 2715/2724 6000 -SHRA SCT020CB BECMG 2800/2803 16015G25KT 6000 -RA BKN012